sensor_id;sensor_type;location;lat;lon;timestamp;P1;durP1;ratioP1;P2;durP2;ratioP2
7903;SDS011;3997;48.416;8.512;2023-08-17T00:00:36;5.88;;;5.38;;
7903;SDS011;3997;48.416;8.512;2023-08-17T00:03:04;7.72;;;5.40;;
7903;SDS011;3997;48.416;8.512;2023-08-17T00:05:30;5.97;;;5.47;;
7903;SDS011;3997;48.416;8.512;2023-08-17T00:07:57;8.65;;;5.97;;
7903;SDS011;3997;48.416;8.512;2023-08-17T00:10:24;7.43;;;5.63;;
7903;SDS011;3997;48.416;8.512;2023-08-17T00:12:50;8.30;;;5.50;;
7903;SDS011;3997;48.416;8.512;2023-08-17T00:15:17;5.60;;;5.10;;
7903;SDS011;3997;48.416;8.512;2023-08-17T00:17:43;6.55;;;5.50;;
7903;SDS011;3997;48.416;8.512;2023-08-17T00:20:11;6.22;;;5.53;;
7903;SDS011;3997;48.416;8.512;2023-08-17T00:22:38;6.70;;;5.40;;
7903;SDS011;3997;48.416;8.512;2023-08-17T00:25:04;6.03;;;5.20;;
7903;SDS011;3997;48.416;8.512;2023-08-17T00:27:31;6.90;;;5.32;;
7903;SDS011;3997;48.416;8.512;2023-08-17T00:29:57;6.38;;;5.68;;
7903;SDS011;3997;48.416;8.512;2023-08-17T00:32:24;6.75;;;5.40;;
7903;SDS011;3997;48.416;8.512;2023-08-17T00:34:50;5.78;;;5.00;;
7903;SDS011;3997;48.416;8.512;2023-08-17T00:37:18;6.03;;;5.43;;
7903;SDS011;3997;48.416;8.512;2023-08-17T00:39:45;5.75;;;5.15;;
7903;SDS011;3997;48.416;8.512;2023-08-17T00:42:11;5.15;;;4.65;;
7903;SDS011;3997;48.416;8.512;2023-08-17T00:44:37;6.65;;;4.97;;
7903;SDS011;3997;48.416;8.512;2023-08-17T00:47:04;5.63;;;5.00;;
7903;SDS011;3997;48.416;8.512;2023-08-17T00:49:30;5.38;;;4.97;;
7903;SDS011;3997;48.416;8.512;2023-08-17T00:51:57;5.72;;;5.22;;
7903;SDS011;3997;48.416;8.512;2023-08-17T00:54:25;7.50;;;5.47;;
7903;SDS011;3997;48.416;8.512;2023-08-17T00:56:53;6.05;;;5.55;;
7903;SDS011;3997;48.416;8.512;2023-08-17T00:59:19;5.63;;;5.22;;
7903;SDS011;3997;48.416;8.512;2023-08-17T01:01:46;5.72;;;5.18;;
7903;SDS011;3997;48.416;8.512;2023-08-17T01:04:13;5.80;;;5.40;;
7903;SDS011;3997;48.416;8.512;2023-08-17T01:06:40;7.13;;;4.90;;
7903;SDS011;3997;48.416;8.512;2023-08-17T01:09:06;5.68;;;5.18;;
7903;SDS011;3997;48.416;8.512;2023-08-17T01:11:36;5.72;;;5.22;;
7903;SDS011;3997;48.416;8.512;2023-08-17T01:14:04;6.00;;;5.20;;
7903;SDS011;3997;48.416;8.512;2023-08-17T01:16:33;5.28;;;4.85;;
7903;SDS011;3997;48.416;8.512;2023-08-17T01:19:00;9.65;;;5.50;;
7903;SDS011;3997;48.416;8.512;2023-08-17T01:21:29;8.23;;;5.65;;
7903;SDS011;3997;48.416;8.512;2023-08-17T01:24:04;5.90;;;5.35;;
7903;SDS011;3997;48.416;8.512;2023-08-17T01:26:31;6.10;;;5.50;;
7903;SDS011;3997;48.416;8.512;2023-08-17T01:28:57;6.60;;;6.00;;
7903;SDS011;3997;48.416;8.512;2023-08-17T01:31:24;6.60;;;6.00;;
7903;SDS011;3997;48.416;8.512;2023-08-17T01:33:56;7.00;;;5.82;;
7903;SDS011;3997;48.416;8.512;2023-08-17T01:36:25;5.97;;;5.47;;
7903;SDS011;3997;48.416;8.512;2023-08-17T01:38:53;6.75;;;5.38;;
7903;SDS011;3997;48.416;8.512;2023-08-17T01:41:22;7.68;;;5.50;;
7903;SDS011;3997;48.416;8.512;2023-08-17T01:43:49;6.72;;;5.47;;
7903;SDS011;3997;48.416;8.512;2023-08-17T01:46:16;7.00;;;5.80;;
7903;SDS011;3997;48.416;8.512;2023-08-17T01:48:43;6.53;;;5.35;;
7903;SDS011;3997;48.416;8.512;2023-08-17T01:51:10;9.90;;;5.50;;
7903;SDS011;3997;48.416;8.512;2023-08-17T01:53:36;6.18;;;5.68;;
7903;SDS011;3997;48.416;8.512;2023-08-17T01:56:03;5.97;;;5.47;;
7903;SDS011;3997;48.416;8.512;2023-08-17T01:58:31;7.95;;;5.93;;
7903;SDS011;3997;48.416;8.512;2023-08-17T02:00:57;6.38;;;5.88;;
7903;SDS011;3997;48.416;8.512;2023-08-17T02:03:23;6.78;;;6.18;;
7903;SDS011;3997;48.416;8.512;2023-08-17T02:05:50;9.68;;;5.93;;
7903;SDS011;3997;48.416;8.512;2023-08-17T02:08:16;6.78;;;5.75;;
7903;SDS011;3997;48.416;8.512;2023-08-17T02:10:43;6.43;;;5.93;;
7903;SDS011;3997;48.416;8.512;2023-08-17T02:13:09;7.53;;;5.90;;
7903;SDS011;3997;48.416;8.512;2023-08-17T02:15:39;6.72;;;6.13;;
7903;SDS011;3997;48.416;8.512;2023-08-17T02:18:05;6.75;;;6.18;;
7903;SDS011;3997;48.416;8.512;2023-08-17T02:20:32;6.30;;;5.90;;
7903;SDS011;3997;48.416;8.512;2023-08-17T02:22:58;7.13;;;5.95;;
7903;SDS011;3997;48.416;8.512;2023-08-17T02:25:25;7.95;;;5.75;;
7903;SDS011;3997;48.416;8.512;2023-08-17T02:27:51;9.38;;;6.10;;
7903;SDS011;3997;48.416;8.512;2023-08-17T02:30:18;6.95;;;6.30;;
7903;SDS011;3997;48.416;8.512;2023-08-17T02:32:46;6.30;;;5.80;;
7903;SDS011;3997;48.416;8.512;2023-08-17T02:35:12;6.07;;;5.57;;
7903;SDS011;3997;48.416;8.512;2023-08-17T02:37:38;5.90;;;5.40;;
7903;SDS011;3997;48.416;8.512;2023-08-17T02:40:05;10.50;;;5.57;;
7903;SDS011;3997;48.416;8.512;2023-08-17T02:42:32;9.48;;;6.20;;
7903;SDS011;3997;48.416;8.512;2023-08-17T02:44:58;7.05;;;6.35;;
7903;SDS011;3997;48.416;8.512;2023-08-17T02:47:25;7.75;;;7.00;;
7903;SDS011;3997;48.416;8.512;2023-08-17T02:49:53;7.70;;;6.68;;
7903;SDS011;3997;48.416;8.512;2023-08-17T02:52:19;9.98;;;7.10;;
7903;SDS011;3997;48.416;8.512;2023-08-17T02:54:46;7.85;;;7.13;;
7903;SDS011;3997;48.416;8.512;2023-08-17T02:57:12;8.63;;;7.80;;
7903;SDS011;3997;48.416;8.512;2023-08-17T02:59:39;9.25;;;7.18;;
7903;SDS011;3997;48.416;8.512;2023-08-17T03:02:05;10.18;;;7.75;;
7903;SDS011;3997;48.416;8.512;2023-08-17T03:04:31;8.10;;;7.35;;
7903;SDS011;3997;48.416;8.512;2023-08-17T03:06:59;7.50;;;6.90;;
7903;SDS011;3997;48.416;8.512;2023-08-17T03:09:26;7.35;;;6.65;;
7903;SDS011;3997;48.416;8.512;2023-08-17T03:11:52;7.50;;;6.80;;
7903;SDS011;3997;48.416;8.512;2023-08-17T03:14:19;7.88;;;6.88;;
7903;SDS011;3997;48.416;8.512;2023-08-17T03:16:45;7.90;;;6.53;;
7903;SDS011;3997;48.416;8.512;2023-08-17T03:19:12;8.80;;;6.25;;
7903;SDS011;3997;48.416;8.512;2023-08-17T03:21:38;6.22;;;5.78;;
7903;SDS011;3997;48.416;8.512;2023-08-17T03:24:06;6.18;;;5.78;;
7903;SDS011;3997;48.416;8.512;2023-08-17T03:26:33;5.40;;;5.10;;
7903;SDS011;3997;48.416;8.512;2023-08-17T03:28:59;6.00;;;5.50;;
7903;SDS011;3997;48.416;8.512;2023-08-17T03:31:26;6.35;;;5.85;;
7903;SDS011;3997;48.416;8.512;2023-08-17T03:33:52;6.18;;;5.68;;
7903;SDS011;3997;48.416;8.512;2023-08-17T03:36:20;6.38;;;5.32;;
7903;SDS011;3997;48.416;8.512;2023-08-17T03:38:46;5.72;;;5.22;;
7903;SDS011;3997;48.416;8.512;2023-08-17T03:41:14;9.18;;;5.30;;
7903;SDS011;3997;48.416;8.512;2023-08-17T03:43:41;6.03;;;5.53;;
7903;SDS011;3997;48.416;8.512;2023-08-17T03:46:07;6.53;;;5.85;;
7903;SDS011;3997;48.416;8.512;2023-08-17T03:48:33;7.72;;;5.60;;
7903;SDS011;3997;48.416;8.512;2023-08-17T03:51:00;6.22;;;5.63;;
7903;SDS011;3997;48.416;8.512;2023-08-17T03:53:27;6.72;;;5.45;;
7903;SDS011;3997;48.416;8.512;2023-08-17T03:55:54;6.10;;;5.60;;
7903;SDS011;3997;48.416;8.512;2023-08-17T03:58:21;5.65;;;5.18;;
7903;SDS011;3997;48.416;8.512;2023-08-17T04:00:51;8.50;;;6.03;;
7903;SDS011;3997;48.416;8.512;2023-08-17T04:03:17;6.32;;;5.55;;
7903;SDS011;3997;48.416;8.512;2023-08-17T04:05:44;6.22;;;5.72;;
7903;SDS011;3997;48.416;8.512;2023-08-17T04:08:10;9.70;;;5.78;;
7903;SDS011;3997;48.416;8.512;2023-08-17T04:10:37;6.40;;;6.00;;
7903;SDS011;3997;48.416;8.512;2023-08-17T04:13:03;6.80;;;6.30;;
7903;SDS011;3997;48.416;8.512;2023-08-17T04:15:31;7.55;;;6.40;;
7903;SDS011;3997;48.416;8.512;2023-08-17T04:17:57;6.45;;;6.03;;
7903;SDS011;3997;48.416;8.512;2023-08-17T04:20:24;6.45;;;5.75;;
7903;SDS011;3997;48.416;8.512;2023-08-17T04:22:50;6.80;;;6.25;;
7903;SDS011;3997;48.416;8.512;2023-08-17T04:25:17;6.28;;;5.68;;
7903;SDS011;3997;48.416;8.512;2023-08-17T04:27:44;5.70;;;5.30;;
7903;SDS011;3997;48.416;8.512;2023-08-17T04:30:11;5.82;;;5.25;;
7903;SDS011;3997;48.416;8.512;2023-08-17T04:32:38;6.30;;;5.70;;
7903;SDS011;3997;48.416;8.512;2023-08-17T04:35:05;5.60;;;5.20;;
7903;SDS011;3997;48.416;8.512;2023-08-17T04:37:32;6.72;;;5.88;;
7903;SDS011;3997;48.416;8.512;2023-08-17T04:39:58;5.85;;;5.35;;
7903;SDS011;3997;48.416;8.512;2023-08-17T04:42:24;5.82;;;5.43;;
7903;SDS011;3997;48.416;8.512;2023-08-17T04:44:52;6.43;;;5.53;;
7903;SDS011;3997;48.416;8.512;2023-08-17T04:47:18;5.70;;;5.25;;
7903;SDS011;3997;48.416;8.512;2023-08-17T04:49:46;6.15;;;5.75;;
7903;SDS011;3997;48.416;8.512;2023-08-17T04:52:13;6.03;;;5.32;;
7903;SDS011;3997;48.416;8.512;2023-08-17T04:54:39;6.03;;;5.53;;
7903;SDS011;3997;48.416;8.512;2023-08-17T04:57:05;5.68;;;5.38;;
7903;SDS011;3997;48.416;8.512;2023-08-17T04:59:32;9.27;;;5.60;;
7903;SDS011;3997;48.416;8.512;2023-08-17T05:02:01;5.75;;;5.18;;
7903;SDS011;3997;48.416;8.512;2023-08-17T05:04:29;5.47;;;5.05;;
7903;SDS011;3997;48.416;8.512;2023-08-17T05:06:57;5.20;;;4.85;;
7903;SDS011;3997;48.416;8.512;2023-08-17T05:09:23;6.03;;;4.57;;
7903;SDS011;3997;48.416;8.512;2023-08-17T05:11:50;6.38;;;4.47;;
7903;SDS011;3997;48.416;8.512;2023-08-17T05:14:16;5.20;;;4.40;;
7903;SDS011;3997;48.416;8.512;2023-08-17T05:16:43;4.78;;;4.47;;
7903;SDS011;3997;48.416;8.512;2023-08-17T05:19:09;4.55;;;4.25;;
7903;SDS011;3997;48.416;8.512;2023-08-17T05:21:36;3.90;;;3.70;;
7903;SDS011;3997;48.416;8.512;2023-08-17T05:24:06;5.15;;;3.80;;
7903;SDS011;3997;48.416;8.512;2023-08-17T05:26:32;4.32;;;4.03;;
7903;SDS011;3997;48.416;8.512;2023-08-17T05:28:59;4.63;;;3.58;;
7903;SDS011;3997;48.416;8.512;2023-08-17T05:31:25;6.40;;;3.50;;
7903;SDS011;3997;48.416;8.512;2023-08-17T05:33:52;3.90;;;3.58;;
7903;SDS011;3997;48.416;8.512;2023-08-17T05:36:18;3.78;;;3.58;;
7903;SDS011;3997;48.416;8.512;2023-08-17T05:38:45;3.60;;;3.40;;
7903;SDS011;3997;48.416;8.512;2023-08-17T05:41:13;3.97;;;3.72;;
7903;SDS011;3997;48.416;8.512;2023-08-17T05:43:40;4.28;;;3.70;;
7903;SDS011;3997;48.416;8.512;2023-08-17T05:46:07;3.58;;;3.30;;
7903;SDS011;3997;48.416;8.512;2023-08-17T05:48:33;3.50;;;3.20;;
7903;SDS011;3997;48.416;8.512;2023-08-17T05:50:59;4.65;;;3.38;;
7903;SDS011;3997;48.416;8.512;2023-08-17T05:53:26;4.75;;;4.35;;
7903;SDS011;3997;48.416;8.512;2023-08-17T05:55:52;4.40;;;4.03;;
7903;SDS011;3997;48.416;8.512;2023-08-17T05:58:20;4.15;;;3.88;;
7903;SDS011;3997;48.416;8.512;2023-08-17T06:00:47;9.23;;;4.38;;
7903;SDS011;3997;48.416;8.512;2023-08-17T06:03:13;3.97;;;3.55;;
7903;SDS011;3997;48.416;8.512;2023-08-17T06:05:39;3.97;;;3.78;;
7903;SDS011;3997;48.416;8.512;2023-08-17T06:08:06;3.97;;;3.78;;
7903;SDS011;3997;48.416;8.512;2023-08-17T06:10:32;3.65;;;3.45;;
7903;SDS011;3997;48.416;8.512;2023-08-17T06:12:59;3.63;;;3.42;;
7903;SDS011;3997;48.416;8.512;2023-08-17T06:15:27;3.63;;;3.42;;
7903;SDS011;3997;48.416;8.512;2023-08-17T06:17:53;3.78;;;3.58;;
7903;SDS011;3997;48.416;8.512;2023-08-17T06:20:20;3.85;;;3.65;;
7903;SDS011;3997;48.416;8.512;2023-08-17T06:22:47;4.05;;;3.85;;
7903;SDS011;3997;48.416;8.512;2023-08-17T06:25:13;3.58;;;3.38;;
7903;SDS011;3997;48.416;8.512;2023-08-17T06:27:40;3.70;;;3.50;;
7903;SDS011;3997;48.416;8.512;2023-08-17T06:30:07;3.92;;;3.55;;
7903;SDS011;3997;48.416;8.512;2023-08-17T06:32:35;4.38;;;3.53;;
7903;SDS011;3997;48.416;8.512;2023-08-17T06:35:02;3.92;;;3.63;;
7903;SDS011;3997;48.416;8.512;2023-08-17T06:37:28;4.70;;;4.30;;
7903;SDS011;3997;48.416;8.512;2023-08-17T06:39:55;4.30;;;4.00;;
7903;SDS011;3997;48.416;8.512;2023-08-17T06:42:21;4.97;;;4.57;;
7903;SDS011;3997;48.416;8.512;2023-08-17T06:44:47;4.65;;;4.28;;
7903;SDS011;3997;48.416;8.512;2023-08-17T06:47:14;4.65;;;4.35;;
7903;SDS011;3997;48.416;8.512;2023-08-17T06:49:45;4.25;;;3.90;;
7903;SDS011;3997;48.416;8.512;2023-08-17T06:52:11;4.45;;;4.15;;
7903;SDS011;3997;48.416;8.512;2023-08-17T06:54:38;4.43;;;4.18;;
7903;SDS011;3997;48.416;8.512;2023-08-17T06:57:05;4.03;;;3.72;;
7903;SDS011;3997;48.416;8.512;2023-08-17T06:59:31;4.75;;;4.30;;
7903;SDS011;3997;48.416;8.512;2023-08-17T07:01:58;4.63;;;4.32;;
7903;SDS011;3997;48.416;8.512;2023-08-17T07:04:24;6.47;;;4.65;;
7903;SDS011;3997;48.416;8.512;2023-08-17T07:06:52;4.38;;;4.05;;
7903;SDS011;3997;48.416;8.512;2023-08-17T07:09:19;4.53;;;4.22;;
7903;SDS011;3997;48.416;8.512;2023-08-17T07:11:46;4.57;;;4.20;;
7903;SDS011;3997;48.416;8.512;2023-08-17T07:14:12;4.38;;;4.05;;
7903;SDS011;3997;48.416;8.512;2023-08-17T07:16:38;4.38;;;4.07;;
7903;SDS011;3997;48.416;8.512;2023-08-17T07:19:05;5.00;;;4.60;;
7903;SDS011;3997;48.416;8.512;2023-08-17T07:21:31;5.00;;;4.70;;
7903;SDS011;3997;48.416;8.512;2023-08-17T07:24:08;4.50;;;4.20;;
7903;SDS011;3997;48.416;8.512;2023-08-17T07:26:37;5.03;;;4.57;;
7903;SDS011;3997;48.416;8.512;2023-08-17T07:29:03;6.35;;;4.13;;
7903;SDS011;3997;48.416;8.512;2023-08-17T07:31:30;5.50;;;5.10;;
7903;SDS011;3997;48.416;8.512;2023-08-17T07:33:58;4.40;;;4.00;;
7903;SDS011;3997;48.416;8.512;2023-08-17T07:36:25;5.32;;;4.72;;
7903;SDS011;3997;48.416;8.512;2023-08-17T07:38:51;4.80;;;4.47;;
7903;SDS011;3997;48.416;8.512;2023-08-17T07:41:19;5.38;;;4.88;;
7903;SDS011;3997;48.416;8.512;2023-08-17T07:43:45;5.18;;;4.78;;
7903;SDS011;3997;48.416;8.512;2023-08-17T07:46:12;5.13;;;4.72;;
7903;SDS011;3997;48.416;8.512;2023-08-17T07:48:38;5.28;;;4.78;;
7903;SDS011;3997;48.416;8.512;2023-08-17T07:51:04;6.15;;;5.55;;
7903;SDS011;3997;48.416;8.512;2023-08-17T07:53:31;5.57;;;4.65;;
7903;SDS011;3997;48.416;8.512;2023-08-17T07:55:57;5.00;;;4.60;;
7903;SDS011;3997;48.416;8.512;2023-08-17T07:58:25;5.60;;;5.15;;
7903;SDS011;3997;48.416;8.512;2023-08-17T08:00:52;5.30;;;4.90;;
7903;SDS011;3997;48.416;8.512;2023-08-17T08:03:18;5.40;;;4.90;;
7903;SDS011;3997;48.416;8.512;2023-08-17T08:05:45;5.32;;;4.93;;
7903;SDS011;3997;48.416;8.512;2023-08-17T08:08:12;5.25;;;4.85;;
7903;SDS011;3997;48.416;8.512;2023-08-17T08:10:39;4.82;;;4.30;;
7903;SDS011;3997;48.416;8.512;2023-08-17T08:13:06;5.65;;;3.33;;
7903;SDS011;3997;48.416;8.512;2023-08-17T08:15:34;4.45;;;3.85;;
7903;SDS011;3997;48.416;8.512;2023-08-17T08:18:00;4.30;;;4.00;;
7903;SDS011;3997;48.416;8.512;2023-08-17T08:20:27;4.40;;;3.20;;
7903;SDS011;3997;48.416;8.512;2023-08-17T08:22:53;4.20;;;3.90;;
7903;SDS011;3997;48.416;8.512;2023-08-17T08:25:19;4.03;;;3.72;;
7903;SDS011;3997;48.416;8.512;2023-08-17T08:27:46;5.57;;;3.47;;
7903;SDS011;3997;48.416;8.512;2023-08-17T08:30:12;3.42;;;3.05;;
7903;SDS011;3997;48.416;8.512;2023-08-17T08:32:40;3.45;;;3.15;;
7903;SDS011;3997;48.416;8.512;2023-08-17T08:35:07;3.25;;;3.05;;
7903;SDS011;3997;48.416;8.512;2023-08-17T08:37:34;3.90;;;3.55;;
7903;SDS011;3997;48.416;8.512;2023-08-17T08:40:00;3.50;;;3.30;;
7903;SDS011;3997;48.416;8.512;2023-08-17T08:42:27;3.50;;;3.30;;
7903;SDS011;3997;48.416;8.512;2023-08-17T08:44:53;3.08;;;2.88;;
7903;SDS011;3997;48.416;8.512;2023-08-17T08:47:20;3.53;;;3.22;;
7903;SDS011;3997;48.416;8.512;2023-08-17T08:49:56;3.70;;;3.38;;
7903;SDS011;3997;48.416;8.512;2023-08-17T08:52:26;3.50;;;3.20;;
7903;SDS011;3997;48.416;8.512;2023-08-17T08:54:56;3.15;;;2.75;;
7903;SDS011;3997;48.416;8.512;2023-08-17T08:57:23;3.95;;;3.47;;
7903;SDS011;3997;48.416;8.512;2023-08-17T08:59:50;3.10;;;2.90;;
7903;SDS011;3997;48.416;8.512;2023-08-17T09:02:17;3.72;;;3.40;;
7903;SDS011;3997;48.416;8.512;2023-08-17T09:04:43;3.10;;;2.90;;
7903;SDS011;3997;48.416;8.512;2023-08-17T09:07:12;3.20;;;3.00;;
7903;SDS011;3997;48.416;8.512;2023-08-17T09:09:38;3.38;;;3.17;;
7903;SDS011;3997;48.416;8.512;2023-08-17T09:12:05;4.68;;;3.20;;
7903;SDS011;3997;48.416;8.512;2023-08-17T09:14:33;3.13;;;2.90;;
7903;SDS011;3997;48.416;8.512;2023-08-17T09:16:59;3.20;;;3.00;;
7903;SDS011;3997;48.416;8.512;2023-08-17T09:19:26;3.88;;;3.58;;
7903;SDS011;3997;48.416;8.512;2023-08-17T09:21:53;3.63;;;3.30;;
7903;SDS011;3997;48.416;8.512;2023-08-17T09:24:21;3.47;;;3.15;;
7903;SDS011;3997;48.416;8.512;2023-08-17T09:26:47;3.47;;;3.28;;
7903;SDS011;3997;48.416;8.512;2023-08-17T09:29:18;3.53;;;3.33;;
7903;SDS011;3997;48.416;8.512;2023-08-17T09:31:45;3.47;;;3.22;;
7903;SDS011;3997;48.416;8.512;2023-08-17T09:34:11;3.72;;;3.30;;
7903;SDS011;3997;48.416;8.512;2023-08-17T09:36:40;3.60;;;3.25;;
7903;SDS011;3997;48.416;8.512;2023-08-17T09:39:07;3.28;;;3.08;;
7903;SDS011;3997;48.416;8.512;2023-08-17T09:41:39;3.63;;;3.22;;
7903;SDS011;3997;48.416;8.512;2023-08-17T09:44:07;3.85;;;3.55;;
7903;SDS011;3997;48.416;8.512;2023-08-17T09:46:33;3.65;;;3.45;;
7903;SDS011;3997;48.416;8.512;2023-08-17T09:49:01;3.65;;;3.35;;
7903;SDS011;3997;48.416;8.512;2023-08-17T09:51:29;5.03;;;3.42;;
7903;SDS011;3997;48.416;8.512;2023-08-17T09:53:56;3.65;;;3.35;;
7903;SDS011;3997;48.416;8.512;2023-08-17T09:56:23;3.97;;;3.50;;
7903;SDS011;3997;48.416;8.512;2023-08-17T09:58:51;3.10;;;2.90;;
7903;SDS011;3997;48.416;8.512;2023-08-17T10:01:18;3.45;;;3.25;;
7903;SDS011;3997;48.416;8.512;2023-08-17T10:03:45;3.75;;;3.45;;
7903;SDS011;3997;48.416;8.512;2023-08-17T10:06:12;3.38;;;3.17;;
7903;SDS011;3997;48.416;8.512;2023-08-17T10:08:39;5.47;;;3.33;;
7903;SDS011;3997;48.416;8.512;2023-08-17T10:11:08;3.88;;;3.58;;
7903;SDS011;3997;48.416;8.512;2023-08-17T10:13:35;3.38;;;3.17;;
7903;SDS011;3997;48.416;8.512;2023-08-17T10:16:06;3.92;;;3.50;;
7903;SDS011;3997;48.416;8.512;2023-08-17T10:18:36;3.50;;;3.30;;
7903;SDS011;3997;48.416;8.512;2023-08-17T10:21:06;3.58;;;3.40;;
7903;SDS011;3997;48.416;8.512;2023-08-17T10:23:33;4.15;;;3.85;;
7903;SDS011;3997;48.416;8.512;2023-08-17T10:26:01;3.97;;;3.67;;
7903;SDS011;3997;48.416;8.512;2023-08-17T10:28:28;3.70;;;3.50;;
7903;SDS011;3997;48.416;8.512;2023-08-17T10:30:54;3.53;;;3.22;;
7903;SDS011;3997;48.416;8.512;2023-08-17T10:33:23;4.20;;;3.90;;
7903;SDS011;3997;48.416;8.512;2023-08-17T10:35:49;4.03;;;3.72;;
7903;SDS011;3997;48.416;8.512;2023-08-17T10:38:16;4.18;;;3.88;;
7903;SDS011;3997;48.416;8.512;2023-08-17T10:40:42;5.65;;;3.95;;
7903;SDS011;3997;48.416;8.512;2023-08-17T10:43:09;3.75;;;3.47;;
7903;SDS011;3997;48.416;8.512;2023-08-17T10:45:37;3.97;;;3.67;;
7903;SDS011;3997;48.416;8.512;2023-08-17T10:51:01;4.20;;;3.85;;
7903;SDS011;3997;48.416;8.512;2023-08-17T10:53:28;4.95;;;3.78;;
7903;SDS011;3997;48.416;8.512;2023-08-17T10:56:00;3.90;;;3.60;;
7903;SDS011;3997;48.416;8.512;2023-08-17T10:58:28;3.78;;;3.35;;
7903;SDS011;3997;48.416;8.512;2023-08-17T11:00:56;3.92;;;3.70;;
7903;SDS011;3997;48.416;8.512;2023-08-17T11:03:23;4.03;;;3.72;;
7903;SDS011;3997;48.416;8.512;2023-08-17T11:05:50;4.70;;;4.30;;
7903;SDS011;3997;48.416;8.512;2023-08-17T11:08:23;4.30;;;4.00;;
7903;SDS011;3997;48.416;8.512;2023-08-17T11:10:57;3.83;;;3.60;;
7903;SDS011;3997;48.416;8.512;2023-08-17T11:13:24;4.30;;;4.00;;
7903;SDS011;3997;48.416;8.512;2023-08-17T11:15:50;4.35;;;4.05;;
7903;SDS011;3997;48.416;8.512;2023-08-17T11:18:17;4.55;;;4.05;;
7903;SDS011;3997;48.416;8.512;2023-08-17T11:20:43;4.47;;;4.18;;
7903;SDS011;3997;48.416;8.512;2023-08-17T11:23:10;4.22;;;3.92;;
7903;SDS011;3997;48.416;8.512;2023-08-17T11:25:37;4.40;;;4.00;;
7903;SDS011;3997;48.416;8.512;2023-08-17T11:28:06;4.60;;;4.30;;
7903;SDS011;3997;48.416;8.512;2023-08-17T11:30:33;4.10;;;3.80;;
7903;SDS011;3997;48.416;8.512;2023-08-17T11:33:01;4.68;;;4.15;;
7903;SDS011;3997;48.416;8.512;2023-08-17T11:35:27;4.25;;;4.00;;
7903;SDS011;3997;48.416;8.512;2023-08-17T11:37:54;5.07;;;4.68;;
7903;SDS011;3997;48.416;8.512;2023-08-17T11:40:20;4.53;;;4.13;;
7903;SDS011;3997;48.416;8.512;2023-08-17T11:42:48;4.95;;;4.55;;
7903;SDS011;3997;48.416;8.512;2023-08-17T11:45:14;4.90;;;4.50;;
7903;SDS011;3997;48.416;8.512;2023-08-17T11:47:42;4.88;;;4.35;;
7903;SDS011;3997;48.416;8.512;2023-08-17T11:50:09;5.05;;;4.65;;
7903;SDS011;3997;48.416;8.512;2023-08-17T11:52:35;5.43;;;5.03;;
7903;SDS011;3997;48.416;8.512;2023-08-17T11:55:02;4.38;;;4.07;;
7903;SDS011;3997;48.416;8.512;2023-08-17T11:57:30;5.38;;;4.97;;
7903;SDS011;3997;48.416;8.512;2023-08-17T11:59:58;5.15;;;4.75;;
7903;SDS011;3997;48.416;8.512;2023-08-17T12:02:25;4.78;;;4.40;;
7903;SDS011;3997;48.416;8.512;2023-08-17T12:04:53;4.60;;;4.25;;
7903;SDS011;3997;48.416;8.512;2023-08-17T12:07:19;4.55;;;4.25;;
7903;SDS011;3997;48.416;8.512;2023-08-17T12:09:47;4.93;;;4.63;;
7903;SDS011;3997;48.416;8.512;2023-08-17T12:12:16;4.70;;;4.40;;
7903;SDS011;3997;48.416;8.512;2023-08-17T12:14:43;4.60;;;4.30;;
7903;SDS011;3997;48.416;8.512;2023-08-17T12:17:14;4.78;;;4.47;;
7903;SDS011;3997;48.416;8.512;2023-08-17T12:19:41;5.00;;;4.60;;
7903;SDS011;3997;48.416;8.512;2023-08-17T12:22:08;5.10;;;4.70;;
7903;SDS011;3997;48.416;8.512;2023-08-17T12:24:34;5.38;;;4.97;;
7903;SDS011;3997;48.416;8.512;2023-08-17T12:27:01;5.05;;;4.68;;
7903;SDS011;3997;48.416;8.512;2023-08-17T12:29:28;5.32;;;4.80;;
7903;SDS011;3997;48.416;8.512;2023-08-17T12:31:56;5.20;;;4.78;;
7903;SDS011;3997;48.416;8.512;2023-08-17T12:34:24;5.00;;;4.70;;
7903;SDS011;3997;48.416;8.512;2023-08-17T12:36:50;5.18;;;4.78;;
7903;SDS011;3997;48.416;8.512;2023-08-17T12:39:17;5.50;;;5.00;;
7903;SDS011;3997;48.416;8.512;2023-08-17T12:41:43;5.50;;;5.10;;
7903;SDS011;3997;48.416;8.512;2023-08-17T12:44:10;5.50;;;4.97;;
7903;SDS011;3997;48.416;8.512;2023-08-17T12:46:38;5.25;;;4.88;;
7903;SDS011;3997;48.416;8.512;2023-08-17T12:49:05;5.15;;;4.75;;
7903;SDS011;3997;48.416;8.512;2023-08-17T12:51:32;5.35;;;4.95;;
7903;SDS011;3997;48.416;8.512;2023-08-17T12:53:59;5.90;;;5.30;;
7903;SDS011;3997;48.416;8.512;2023-08-17T12:56:25;6.45;;;5.13;;
7903;SDS011;3997;48.416;8.512;2023-08-17T12:58:52;5.18;;;4.82;;
7903;SDS011;3997;48.416;8.512;2023-08-17T13:01:18;5.28;;;4.85;;
7903;SDS011;3997;48.416;8.512;2023-08-17T13:03:45;5.70;;;4.80;;
7903;SDS011;3997;48.416;8.512;2023-08-17T13:06:11;5.10;;;4.80;;
7903;SDS011;3997;48.416;8.512;2023-08-17T13:08:39;6.25;;;5.00;;
7903;SDS011;3997;48.416;8.512;2023-08-17T13:11:05;5.65;;;5.22;;
7903;SDS011;3997;48.416;8.512;2023-08-17T13:13:32;5.57;;;5.07;;
7903;SDS011;3997;48.416;8.512;2023-08-17T13:15:58;5.10;;;4.60;;
7903;SDS011;3997;48.416;8.512;2023-08-17T13:18:25;5.22;;;4.80;;
7903;SDS011;3997;48.416;8.512;2023-08-17T13:20:51;4.10;;;3.80;;
7903;SDS011;3997;48.416;8.512;2023-08-17T13:23:18;4.30;;;3.70;;
7903;SDS011;3997;48.416;8.512;2023-08-17T13:25:45;4.28;;;3.80;;
7903;SDS011;3997;48.416;8.512;2023-08-17T13:28:12;4.70;;;3.88;;
7903;SDS011;3997;48.416;8.512;2023-08-17T13:30:38;5.05;;;4.47;;
7903;SDS011;3997;48.416;8.512;2023-08-17T13:33:05;4.50;;;3.85;;
7903;SDS011;3997;48.416;8.512;2023-08-17T13:35:32;3.65;;;3.45;;
7903;SDS011;3997;48.416;8.512;2023-08-17T13:37:58;5.28;;;3.63;;
7903;SDS011;3997;48.416;8.512;2023-08-17T13:40:25;4.25;;;3.85;;
7903;SDS011;3997;48.416;8.512;2023-08-17T13:42:53;4.20;;;3.80;;
7903;SDS011;3997;48.416;8.512;2023-08-17T13:45:20;4.22;;;3.92;;
7903;SDS011;3997;48.416;8.512;2023-08-17T13:47:47;4.50;;;4.10;;
7903;SDS011;3997;48.416;8.512;2023-08-17T13:50:13;4.18;;;3.80;;
7903;SDS011;3997;48.416;8.512;2023-08-17T13:52:40;5.15;;;4.28;;
7903;SDS011;3997;48.416;8.512;2023-08-17T13:55:06;4.18;;;3.70;;
7903;SDS011;3997;48.416;8.512;2023-08-17T13:57:33;4.00;;;3.70;;
7903;SDS011;3997;48.416;8.512;2023-08-17T14:00:01;4.25;;;3.88;;
7903;SDS011;3997;48.416;8.512;2023-08-17T14:02:29;4.93;;;3.63;;
7903;SDS011;3997;48.416;8.512;2023-08-17T14:04:55;5.15;;;4.45;;
7903;SDS011;3997;48.416;8.512;2023-08-17T14:07:22;4.00;;;3.70;;
7903;SDS011;3997;48.416;8.512;2023-08-17T14:09:48;4.22;;;3.90;;
7903;SDS011;3997;48.416;8.512;2023-08-17T14:12:15;4.55;;;3.60;;
7903;SDS011;3997;48.416;8.512;2023-08-17T14:14:41;4.50;;;3.90;;
7903;SDS011;3997;48.416;8.512;2023-08-17T14:17:09;4.28;;;3.60;;
7903;SDS011;3997;48.416;8.512;2023-08-17T14:19:35;4.32;;;4.03;;
7903;SDS011;3997;48.416;8.512;2023-08-17T14:22:02;3.58;;;3.38;;
7903;SDS011;3997;48.416;8.512;2023-08-17T14:24:28;6.32;;;3.90;;
7903;SDS011;3997;48.416;8.512;2023-08-17T14:26:55;4.75;;;3.70;;
7903;SDS011;3997;48.416;8.512;2023-08-17T14:29:23;5.43;;;3.95;;
7903;SDS011;3997;48.416;8.512;2023-08-17T14:31:49;3.80;;;3.50;;
7903;SDS011;3997;48.416;8.512;2023-08-17T14:34:17;5.32;;;3.67;;
7903;SDS011;3997;48.416;8.512;2023-08-17T14:36:44;3.83;;;3.53;;
7903;SDS011;3997;48.416;8.512;2023-08-17T14:39:11;4.05;;;3.67;;
7903;SDS011;3997;48.416;8.512;2023-08-17T14:41:37;3.85;;;3.65;;
7903;SDS011;3997;48.416;8.512;2023-08-17T14:44:04;3.88;;;3.58;;
7903;SDS011;3997;48.416;8.512;2023-08-17T14:46:30;3.97;;;3.67;;
7903;SDS011;3997;48.416;8.512;2023-08-17T14:48:57;3.13;;;2.92;;
7903;SDS011;3997;48.416;8.512;2023-08-17T14:51:25;3.90;;;3.65;;
7903;SDS011;3997;48.416;8.512;2023-08-17T14:53:51;3.85;;;3.53;;
7903;SDS011;3997;48.416;8.512;2023-08-17T14:56:17;3.63;;;3.33;;
7903;SDS011;3997;48.416;8.512;2023-08-17T14:58:44;5.32;;;3.70;;
7903;SDS011;3997;48.416;8.512;2023-08-17T15:01:11;4.15;;;3.85;;
7903;SDS011;3997;48.416;8.512;2023-08-17T15:03:38;4.18;;;3.95;;
7903;SDS011;3997;48.416;8.512;2023-08-17T15:06:06;4.28;;;3.97;;
7903;SDS011;3997;48.416;8.512;2023-08-17T15:08:33;3.90;;;3.70;;
7903;SDS011;3997;48.416;8.512;2023-08-17T15:11:00;4.35;;;4.03;;
7903;SDS011;3997;48.416;8.512;2023-08-17T15:13:27;4.95;;;4.55;;
7903;SDS011;3997;48.416;8.512;2023-08-17T15:15:55;5.82;;;5.43;;